createdAt,value
2018-12-11T00:02:01.654Z,5.6
2018-12-11T00:07:01.209Z,5.3
2018-12-11T00:12:01.240Z,5.0
2018-12-11T00:17:01.246Z,4.8
2018-12-11T00:22:01.241Z,5.0
2018-12-11T00:27:06.258Z,5.2
2018-12-11T00:32:01.244Z,5.2
2018-12-11T00:37:01.243Z,5.5
2018-12-11T00:42:01.247Z,5.2
2018-12-11T00:47:06.262Z,5.1
2018-12-11T00:52:01.252Z,5.2
2018-12-11T00:57:01.258Z,5.1
2018-12-11T01:02:01.250Z,5.2
2018-12-11T01:07:01.252Z,5.0
2018-12-11T01:12:01.318Z,5.1
2018-12-11T01:17:01.256Z,5.1
2018-12-11T01:22:01.229Z,4.8
2018-12-11T01:27:01.222Z,4.6
2018-12-11T01:33:01.243Z,4.8
2018-12-11T01:38:01.243Z,4.2
2018-12-11T01:43:01.246Z,4.3
2018-12-11T01:48:01.279Z,4.6
2018-12-11T01:53:06.314Z,4.5
2018-12-11T02:03:01.327Z,4.6
2018-12-11T02:08:01.251Z,4.6
2018-12-11T02:13:01.255Z,4.6
2018-12-11T02:18:01.254Z,4.3
2018-12-11T02:28:01.262Z,4.7
2018-12-11T02:33:01.367Z,4.3
2018-12-11T02:43:01.251Z,4.9
2018-12-11T02:48:01.279Z,5.8
2018-12-11T02:53:01.261Z,7.5
2018-12-11T02:58:02.201Z,7.5
2018-12-11T03:08:06.253Z,7.1
2018-12-11T03:13:01.249Z,5.7
2018-12-11T03:18:01.256Z,3.6
2018-12-11T03:23:01.251Z,3.8
2018-12-11T03:28:01.254Z,3.8
2018-12-11T03:33:01.224Z,4.0
2018-12-11T03:38:01.263Z,4.6
2018-12-11T03:43:01.257Z,4.8
2018-12-11T03:48:01.276Z,4.5
2018-12-11T03:53:01.263Z,4.6
2018-12-11T03:58:01.257Z,4.1
2018-12-11T04:03:01.259Z,4.2
2018-12-11T04:18:01.249Z,3.5
2018-12-11T04:23:03.969Z,3.6
2018-12-11T04:28:01.246Z,3.0
2018-12-11T04:33:06.282Z,3.1
2018-12-11T04:43:01.237Z,3.0
2018-12-11T04:53:01.247Z,3.8
2018-12-11T05:08:01.200Z,4.2
2018-12-11T05:18:06.216Z,3.5
2018-12-11T05:23:01.237Z,3.7
2018-12-11T05:28:01.236Z,3.5
2018-12-11T05:33:01.204Z,3.4
2018-12-11T05:38:01.207Z,3.2
2018-12-11T05:53:01.244Z,3.3
2018-12-11T05:58:01.247Z,3.3
2018-12-11T06:03:01.231Z,3.5
2018-12-11T06:08:06.252Z,3.4
2018-12-11T06:13:01.366Z,3.2
2018-12-11T06:18:02.012Z,3.5
2018-12-11T06:23:01.256Z,3.7
2018-12-11T06:28:01.229Z,3.5
2018-12-11T06:43:01.241Z,3.4
2018-12-11T06:48:06.252Z,3.2
2018-12-11T06:58:06.260Z,3.4
2018-12-11T07:08:01.245Z,3.3
2018-12-11T07:13:01.288Z,3.5
2018-12-11T07:18:01.245Z,3.6
2018-12-11T07:23:01.244Z,3.2
2018-12-11T07:28:01.241Z,3.2
2018-12-11T07:43:01.214Z,3.2
2018-12-11T07:48:01.244Z,3.4
2018-12-11T07:53:01.254Z,3.4
2018-12-11T08:03:01.279Z,3.2
2018-12-11T08:08:01.258Z,3.2
2018-12-11T08:13:06.246Z,3.0
2018-12-11T08:28:06.316Z,3.0
2018-12-11T08:33:06.254Z,3.1
2018-12-11T08:38:01.273Z,3.3
2018-12-11T08:48:06.263Z,3.4
2018-12-11T08:53:06.260Z,3.4
2018-12-11T08:58:01.286Z,3.3
2018-12-11T09:09:01.244Z,3.4
2018-12-11T09:14:01.240Z,3.3
2018-12-11T09:19:01.213Z,3.5
2018-12-11T09:24:01.242Z,4.1
2018-12-11T09:29:01.256Z,4.0
2018-12-11T09:34:01.208Z,3.8
2018-12-11T09:39:01.238Z,4.0
2018-12-11T09:44:06.261Z,3.8
2018-12-11T09:49:06.260Z,3.4
2018-12-11T09:59:01.264Z,3.6
2018-12-11T10:04:06.258Z,3.4
2018-12-11T10:09:06.286Z,3.6
2018-12-11T10:14:06.228Z,3.2
2018-12-11T10:19:06.325Z,3.0
2018-12-11T10:29:02.359Z,3.2
2018-12-11T10:39:01.242Z,3.4
2018-12-11T10:44:01.236Z,4.2
2018-12-11T10:49:01.245Z,4.4
2018-12-11T10:54:01.255Z,4.0
2018-12-11T11:04:01.253Z,4.2
2018-12-11T11:09:01.215Z,3.8
2018-12-11T11:14:01.279Z,3.6
2018-12-11T11:19:01.217Z,4.3
2018-12-11T11:24:01.217Z,4.1
2018-12-11T11:29:01.273Z,3.7
2018-12-11T11:34:01.255Z,3.3
2018-12-11T11:44:01.255Z,3.0
2018-12-11T11:49:01.238Z,3.6
2018-12-11T11:54:01.238Z,4.0
2018-12-11T11:59:01.255Z,4.3
2018-12-11T12:14:06.374Z,3.8
2018-12-11T12:19:06.253Z,4.1
2018-12-11T12:24:06.232Z,4.2
2018-12-11T12:34:06.257Z,4.8
2018-12-11T12:39:06.260Z,5.1
2018-12-11T12:44:01.265Z,5.2
2018-12-11T12:49:06.249Z,5.2
2018-12-11T13:04:06.255Z,4.3
2018-12-11T13:09:06.245Z,4.2
2018-12-11T13:14:02.138Z,4.3
2018-12-11T13:24:01.389Z,4.1
2018-12-11T13:29:06.257Z,4.3
2018-12-11T13:39:01.269Z,4.3
2018-12-11T13:44:06.297Z,4.5
2018-12-11T13:49:01.283Z,5.0
2018-12-11T13:54:06.260Z,4.9
2018-12-11T13:59:06.261Z,5.0
2018-12-11T14:04:06.261Z,5.2
2018-12-11T14:10:01.210Z,5.4
2018-12-11T14:15:01.250Z,5.6
2018-12-11T14:20:02.225Z,5.4
2018-12-11T14:25:01.235Z,5.2
2018-12-11T14:30:01.243Z,5.0
2018-12-11T14:35:06.313Z,4.8
2018-12-11T14:40:06.265Z,4.6
2018-12-11T14:45:06.442Z,5.1
2018-12-11T14:50:06.255Z,5.1
2018-12-11T14:55:06.228Z,5.4
2018-12-11T15:00:01.259Z,5.2
2018-12-11T15:06:01.237Z,5.1
2018-12-11T15:11:01.847Z,5.2
2018-12-11T15:26:01.235Z,9.2
2018-12-11T15:31:01.230Z,8.8
2018-12-11T15:36:01.303Z,8.2
2018-12-11T15:41:02.096Z,7.9
2018-12-11T15:46:01.430Z,7.2
2018-12-11T15:51:06.250Z,2.9
2018-12-11T15:56:06.251Z,2.7
2018-12-11T16:01:06.252Z,2.9
2018-12-11T16:06:06.261Z,3.0
2018-12-11T16:11:01.287Z,3.4
2018-12-11T16:16:01.273Z,3.7
2018-12-11T16:21:06.420Z,4.0
2018-12-11T16:36:01.265Z,4.1
2018-12-11T16:51:06.262Z,4.1
2018-12-11T17:01:06.249Z,4.0
2018-12-11T17:16:01.248Z,4.1
2018-12-11T17:26:01.213Z,3.9
2018-12-11T17:36:01.238Z,3.8
2018-12-11T17:41:01.235Z,3.7
2018-12-11T17:46:01.241Z,3.6
2018-12-11T17:51:01.242Z,3.8
2018-12-11T17:56:01.241Z,3.7
2018-12-11T18:11:01.237Z,3.4
2018-12-11T18:16:01.245Z,3.5
2018-12-11T18:21:06.254Z,3.6
2018-12-11T18:31:01.251Z,3.7
2018-12-11T18:36:01.265Z,3.8
2018-12-11T18:52:01.240Z,3.6
2018-12-11T18:57:01.218Z,4.0
2018-12-11T19:02:01.236Z,4.2
2018-12-11T19:12:01.279Z,4.1
2018-12-11T19:17:01.318Z,4.3
2018-12-11T19:22:06.250Z,3.9
2018-12-11T19:27:01.278Z,4.0
2018-12-11T19:37:01.247Z,4.1
2018-12-11T19:42:01.247Z,3.9
2018-12-11T19:47:01.253Z,3.5
2018-12-11T19:52:01.254Z,3.0
2018-12-11T19:57:01.253Z,3.2
2018-12-11T20:02:01.230Z,3.3
2018-12-11T20:07:01.240Z,3.5
2018-12-11T20:12:01.244Z,3.9
2018-12-11T20:17:06.313Z,4.4
2018-12-11T20:22:01.307Z,4.2
2018-12-11T20:27:01.247Z,4.2
2018-12-11T20:32:01.244Z,4.4
2018-12-11T20:42:06.259Z,4.2
2018-12-11T20:47:02.303Z,4.4
2018-12-11T20:52:01.259Z,4.4
2018-12-11T20:57:06.254Z,4.4
2018-12-11T21:13:01.280Z,4.4
2018-12-11T21:23:01.279Z,4.1
2018-12-11T21:33:01.247Z,3.8
2018-12-11T21:38:01.216Z,3.6
2018-12-11T21:48:01.247Z,3.8
2018-12-11T21:58:01.237Z,4.3
2018-12-11T22:03:01.238Z,3.9
2018-12-11T22:08:06.263Z,3.6
2018-12-11T22:18:06.256Z,3.6
2018-12-11T22:23:01.269Z,3.4
2018-12-11T22:28:01.227Z,3.8
2018-12-11T22:33:01.249Z,3.6
2018-12-11T22:38:01.217Z,3.6
2018-12-11T22:43:01.250Z,3.2
2018-12-11T22:48:06.255Z,3.2
2018-12-11T22:58:01.233Z,3.3
2018-12-11T23:13:01.240Z,3.3
2018-12-11T23:23:01.266Z,3.6
2018-12-11T23:28:06.228Z,3.6
2018-12-11T23:38:01.260Z,4.0
2018-12-11T23:43:06.258Z,4.2
2018-12-11T23:48:06.233Z,4.0
2018-12-11T23:53:01.254Z,4.0
2018-12-11T23:58:01.275Z,4.2
